sensor_id;sensor_type;location;lat;lon;timestamp;noise_LAeq;noise_LA_min;noise_LA_max;noise_LA01;noise_LA95
43787;Laerm;29409;49.306;8.500;2023-08-07T00:00:59;40.71;36.69;44.07;;
43787;Laerm;29409;49.306;8.500;2023-08-07T00:01:59;39.73;36.45;41.82;;
43787;Laerm;29409;49.306;8.500;2023-08-07T00:03:00;39.40;35.66;41.68;;
43787;Laerm;29409;49.306;8.500;2023-08-07T00:04:00;40.28;35.94;54.16;;
43787;Laerm;29409;49.306;8.500;2023-08-07T00:05:00;40.15;35.94;43.04;;
43787;Laerm;29409;49.306;8.500;2023-08-07T00:06:00;40.68;37.12;44.15;;
43787;Laerm;29409;49.306;8.500;2023-08-07T00:07:01;39.74;36.91;41.96;;
43787;Laerm;29409;49.306;8.500;2023-08-07T00:08:01;39.76;35.66;42.35;;
43787;Laerm;29409;49.306;8.500;2023-08-07T00:09:02;39.34;36.20;41.38;;
43787;Laerm;29409;49.306;8.500;2023-08-07T00:10:02;39.42;36.20;42.29;;
43787;Laerm;29409;49.306;8.500;2023-08-07T00:11:09;39.45;36.20;42.59;;
43787;Laerm;29409;49.306;8.500;2023-08-07T00:12:11;39.41;35.36;41.75;;
43787;Laerm;29409;49.306;8.500;2023-08-07T00:13:11;39.21;36.56;41.46;;
43787;Laerm;29409;49.306;8.500;2023-08-07T00:14:11;39.37;35.36;41.53;;
43787;Laerm;29409;49.306;8.500;2023-08-07T00:15:11;39.20;35.94;41.38;;
43787;Laerm;29409;49.306;8.500;2023-08-07T00:16:12;39.29;36.20;41.46;;
43787;Laerm;29409;49.306;8.500;2023-08-07T00:17:12;39.26;35.04;42.22;;
43787;Laerm;29409;49.306;8.500;2023-08-07T00:18:12;39.23;36.20;41.82;;
43787;Laerm;29409;49.306;8.500;2023-08-07T00:19:12;39.94;36.20;42.82;;
43787;Laerm;29409;49.306;8.500;2023-08-07T00:20:13;39.42;36.20;43.85;;
43787;Laerm;29409;49.306;8.500;2023-08-07T00:21:13;39.79;36.45;42.35;;
43787;Laerm;29409;49.306;8.500;2023-08-07T00:22:13;39.30;36.20;42.09;;
43787;Laerm;29409;49.306;8.500;2023-08-07T00:23:13;39.34;34.69;42.53;;
43787;Laerm;29409;49.306;8.500;2023-08-07T00:24:14;39.67;36.45;41.89;;
43787;Laerm;29409;49.306;8.500;2023-08-07T00:25:14;40.02;35.66;45.30;;
43787;Laerm;29409;49.306;8.500;2023-08-07T00:26:14;40.32;36.69;43.94;;
43787;Laerm;29409;49.306;8.500;2023-08-07T00:27:14;40.44;36.10;45.11;;
43787;Laerm;29409;49.306;8.500;2023-08-07T00:28:18;39.67;36.45;43.58;;
43787;Laerm;29409;49.306;8.500;2023-08-07T00:29:18;39.93;36.91;43.24;;
43787;Laerm;29409;49.306;8.500;2023-08-07T00:30:18;39.34;35.36;41.53;;
43787;Laerm;29409;49.306;8.500;2023-08-07T00:31:19;39.54;36.69;42.65;;
43787;Laerm;29409;49.306;8.500;2023-08-07T00:32:19;40.52;37.32;44.87;;
43787;Laerm;29409;49.306;8.500;2023-08-07T00:33:19;40.57;36.69;51.18;;
43787;Laerm;29409;49.306;8.500;2023-08-07T00:34:19;40.91;36.45;51.44;;
43787;Laerm;29409;49.306;8.500;2023-08-07T00:35:20;39.86;36.20;42.53;;
43787;Laerm;29409;49.306;8.500;2023-08-07T00:36:20;40.30;36.45;45.80;;
43787;Laerm;29409;49.306;8.500;2023-08-07T00:37:20;39.78;36.91;50.12;;
43787;Laerm;29409;49.306;8.500;2023-08-07T00:38:21;40.44;36.45;45.97;;
43787;Laerm;29409;49.306;8.500;2023-08-07T00:39:21;40.19;35.36;43.58;;
43787;Laerm;29409;49.306;8.500;2023-08-07T00:40:21;39.70;36.20;43.86;;
43787;Laerm;29409;49.306;8.500;2023-08-07T00:41:22;39.76;36.45;41.96;;
43787;Laerm;29409;49.306;8.500;2023-08-07T00:42:22;40.47;36.91;43.94;;
43787;Laerm;29409;49.306;8.500;2023-08-07T00:43:23;40.14;36.91;42.41;;
43787;Laerm;29409;49.306;8.500;2023-08-07T00:44:23;40.03;35.66;43.99;;
43787;Laerm;29409;49.306;8.500;2023-08-07T00:45:24;40.34;36.20;46.57;;
43787;Laerm;29409;49.306;8.500;2023-08-07T00:46:27;40.07;34.69;43.44;;
43787;Laerm;29409;49.306;8.500;2023-08-07T00:47:29;39.71;36.69;41.68;;
43787;Laerm;29409;49.306;8.500;2023-08-07T00:48:31;39.59;35.94;42.09;;
43787;Laerm;29409;49.306;8.500;2023-08-07T00:49:32;39.91;36.69;42.22;;
43787;Laerm;29409;49.306;8.500;2023-08-07T00:50:33;41.20;37.12;49.70;;
43787;Laerm;29409;49.306;8.500;2023-08-07T00:51:33;40.56;37.35;46.95;;
43787;Laerm;29409;49.306;8.500;2023-08-07T00:52:35;39.29;36.45;41.68;;
43787;Laerm;29409;49.306;8.500;2023-08-07T00:53:37;39.84;36.91;41.89;;
43787;Laerm;29409;49.306;8.500;2023-08-07T00:54:40;40.45;37.32;43.54;;
43787;Laerm;29409;49.306;8.500;2023-08-07T00:55:48;40.27;36.69;49.32;;
43787;Laerm;29409;49.306;8.500;2023-08-07T00:56:49;40.10;35.66;42.98;;
43787;Laerm;29409;49.306;8.500;2023-08-07T00:57:49;41.07;36.91;46.50;;
43787;Laerm;29409;49.306;8.500;2023-08-07T00:58:50;41.00;36.91;50.40;;
43787;Laerm;29409;49.306;8.500;2023-08-07T00:59:51;40.90;36.45;49.16;;
43787;Laerm;29409;49.306;8.500;2023-08-07T01:00:51;40.29;37.12;42.82;;
43787;Laerm;29409;49.306;8.500;2023-08-07T01:01:52;40.79;37.52;43.09;;
43787;Laerm;29409;49.306;8.500;2023-08-07T01:02:53;40.72;37.12;43.39;;
43787;Laerm;29409;49.306;8.500;2023-08-07T01:03:54;40.10;36.69;44.82;;
43787;Laerm;29409;49.306;8.500;2023-08-07T01:04:54;40.07;37.52;42.22;;
43787;Laerm;29409;49.306;8.500;2023-08-07T01:05:55;40.26;37.12;42.98;;
43787;Laerm;29409;49.306;8.500;2023-08-07T01:06:55;39.89;36.45;42.16;;
43787;Laerm;29409;49.306;8.500;2023-08-07T01:07:56;39.91;36.69;42.88;;
43787;Laerm;29409;49.306;8.500;2023-08-07T01:08:56;40.11;36.45;42.88;;
43787;Laerm;29409;49.306;8.500;2023-08-07T01:09:57;40.05;36.45;43.14;;
43787;Laerm;29409;49.306;8.500;2023-08-07T01:12:24;40.46;37.12;45.39;;
43787;Laerm;29409;49.306;8.500;2023-08-07T01:13:32;39.97;37.12;42.47;;
43787;Laerm;29409;49.306;8.500;2023-08-07T01:14:38;41.34;37.12;61.58;;
43787;Laerm;29409;49.306;8.500;2023-08-07T01:15:46;40.49;36.69;43.93;;
43787;Laerm;29409;49.306;8.500;2023-08-07T01:16:57;40.49;37.70;50.60;;
43787;Laerm;29409;49.306;8.500;2023-08-07T01:18:00;39.97;37.12;42.16;;
43787;Laerm;29409;49.306;8.500;2023-08-07T01:19:01;40.75;36.20;47.62;;
43787;Laerm;29409;49.306;8.500;2023-08-07T01:20:03;40.31;36.20;49.60;;
43787;Laerm;29409;49.306;8.500;2023-08-07T01:21:04;39.66;36.20;41.89;;
43787;Laerm;29409;49.306;8.500;2023-08-07T01:22:11;39.54;35.86;43.72;;
43787;Laerm;29409;49.306;8.500;2023-08-07T01:23:16;40.08;35.36;43.19;;
43787;Laerm;29409;49.306;8.500;2023-08-07T01:24:20;42.61;38.21;55.31;;
43787;Laerm;29409;49.306;8.500;2023-08-07T01:25:21;40.72;36.91;45.99;;
43787;Laerm;29409;49.306;8.500;2023-08-07T01:26:21;39.69;36.45;44.76;;
43787;Laerm;29409;49.306;8.500;2023-08-07T01:27:24;39.63;36.20;42.16;;
43787;Laerm;29409;49.306;8.500;2023-08-07T01:28:27;39.56;35.94;42.41;;
43787;Laerm;29409;49.306;8.500;2023-08-07T01:29:32;40.20;35.36;45.77;;
43787;Laerm;29409;49.306;8.500;2023-08-07T01:31:35;40.25;36.91;43.39;;
43787;Laerm;29409;49.306;8.500;2023-08-07T01:32:45;41.24;37.32;57.36;;
43787;Laerm;29409;49.306;8.500;2023-08-07T01:33:51;45.91;39.81;55.98;;
43787;Laerm;29409;49.306;8.500;2023-08-07T01:34:54;41.99;38.05;55.95;;
43787;Laerm;29409;49.306;8.500;2023-08-07T01:35:55;44.47;38.67;52.75;;
43787;Laerm;29409;49.306;8.500;2023-08-07T01:36:57;40.77;37.70;44.51;;
43787;Laerm;29409;49.306;8.500;2023-08-07T01:37:58;39.93;36.45;44.51;;
43787;Laerm;29409;49.306;8.500;2023-08-07T01:39:00;39.71;36.20;41.96;;
43787;Laerm;29409;49.306;8.500;2023-08-07T01:40:02;40.86;37.70;44.07;;
43787;Laerm;29409;49.306;8.500;2023-08-07T01:41:07;39.43;36.56;41.89;;
43787;Laerm;29409;49.306;8.500;2023-08-07T01:42:11;40.18;36.20;44.03;;
43787;Laerm;29409;49.306;8.500;2023-08-07T01:43:18;39.58;36.45;42.41;;
43787;Laerm;29409;49.306;8.500;2023-08-07T01:44:19;40.07;36.45;49.88;;
43787;Laerm;29409;49.306;8.500;2023-08-07T01:45:25;39.58;36.20;42.59;;
43787;Laerm;29409;49.306;8.500;2023-08-07T01:46:27;39.63;36.91;42.09;;
43787;Laerm;29409;49.306;8.500;2023-08-07T01:47:27;39.64;36.45;43.09;;
43787;Laerm;29409;49.306;8.500;2023-08-07T01:48:28;40.13;35.66;45.94;;
43787;Laerm;29409;49.306;8.500;2023-08-07T01:49:28;40.39;36.20;44.31;;
43787;Laerm;29409;49.306;8.500;2023-08-07T01:50:29;41.19;36.69;51.00;;
43787;Laerm;29409;49.306;8.500;2023-08-07T01:51:30;41.13;37.52;52.73;;
43787;Laerm;29409;49.306;8.500;2023-08-07T01:52:30;39.93;36.45;42.16;;
43787;Laerm;29409;49.306;8.500;2023-08-07T01:53:31;39.94;36.45;42.88;;
43787;Laerm;29409;49.306;8.500;2023-08-07T01:54:31;40.26;36.69;43.77;;
43787;Laerm;29409;49.306;8.500;2023-08-07T01:55:32;39.46;36.20;41.61;;
43787;Laerm;29409;49.306;8.500;2023-08-07T01:56:32;39.64;36.20;41.53;;
43787;Laerm;29409;49.306;8.500;2023-08-07T01:57:33;39.61;36.69;42.76;;
43787;Laerm;29409;49.306;8.500;2023-08-07T01:58:33;40.08;36.91;43.09;;
43787;Laerm;29409;49.306;8.500;2023-08-07T01:59:36;39.74;36.45;43.29;;
43787;Laerm;29409;49.306;8.500;2023-08-07T02:00:37;40.00;36.69;43.29;;
43787;Laerm;29409;49.306;8.500;2023-08-07T02:01:37;39.81;36.69;41.89;;
43787;Laerm;29409;49.306;8.500;2023-08-07T02:02:38;40.00;36.69;43.19;;
43787;Laerm;29409;49.306;8.500;2023-08-07T02:03:38;40.70;37.52;47.68;;
43787;Laerm;29409;49.306;8.500;2023-08-07T02:04:38;40.04;36.20;43.86;;
43787;Laerm;29409;49.306;8.500;2023-08-07T02:05:39;39.77;35.04;42.30;;
43787;Laerm;29409;49.306;8.500;2023-08-07T02:06:39;40.37;35.94;51.71;;
43787;Laerm;29409;49.306;8.500;2023-08-07T02:07:40;40.43;37.70;43.04;;
43787;Laerm;29409;49.306;8.500;2023-08-07T02:08:41;40.35;37.12;45.39;;
43787;Laerm;29409;49.306;8.500;2023-08-07T02:09:42;41.07;37.32;46.28;;
43787;Laerm;29409;49.306;8.500;2023-08-07T02:10:42;40.66;37.12;44.62;;
43787;Laerm;29409;49.306;8.500;2023-08-07T02:11:43;42.74;36.69;53.99;;
43787;Laerm;29409;49.306;8.500;2023-08-07T02:12:44;40.59;37.70;42.59;;
43787;Laerm;29409;49.306;8.500;2023-08-07T02:13:45;39.93;37.12;42.29;;
43787;Laerm;29409;49.306;8.500;2023-08-07T02:14:45;40.57;37.32;45.36;;
43787;Laerm;29409;49.306;8.500;2023-08-07T02:15:46;39.83;36.69;41.89;;
43787;Laerm;29409;49.306;8.500;2023-08-07T02:16:46;39.82;36.45;42.13;;
43787;Laerm;29409;49.306;8.500;2023-08-07T02:17:47;40.50;36.91;42.47;;
43787;Laerm;29409;49.306;8.500;2023-08-07T02:18:50;41.97;38.21;46.52;;
43787;Laerm;29409;49.306;8.500;2023-08-07T02:19:53;40.89;37.88;43.44;;
43787;Laerm;29409;49.306;8.500;2023-08-07T02:20:54;40.86;37.32;43.19;;
43787;Laerm;29409;49.306;8.500;2023-08-07T02:21:57;40.25;37.32;42.93;;
43787;Laerm;29409;49.306;8.500;2023-08-07T02:22:58;40.14;36.69;42.22;;
43787;Laerm;29409;49.306;8.500;2023-08-07T02:23:58;39.95;36.69;43.37;;
43787;Laerm;29409;49.306;8.500;2023-08-07T02:24:59;41.11;36.20;48.32;;
43787;Laerm;29409;49.306;8.500;2023-08-07T02:25:59;41.28;37.88;45.48;;
43787;Laerm;29409;49.306;8.500;2023-08-07T02:27:00;40.65;37.52;49.82;;
43787;Laerm;29409;49.306;8.500;2023-08-07T02:28:00;40.06;36.69;42.71;;
43787;Laerm;29409;49.306;8.500;2023-08-07T02:29:01;40.34;36.91;42.47;;
43787;Laerm;29409;49.306;8.500;2023-08-07T02:30:03;40.51;37.52;46.18;;
43787;Laerm;29409;49.306;8.500;2023-08-07T02:31:03;40.00;36.20;43.55;;
43787;Laerm;29409;49.306;8.500;2023-08-07T02:32:04;43.04;36.20;56.56;;
43787;Laerm;29409;49.306;8.500;2023-08-07T02:33:05;42.50;39.08;47.52;;
43787;Laerm;29409;49.306;8.500;2023-08-07T02:34:05;40.99;38.05;44.39;;
43787;Laerm;29409;49.306;8.500;2023-08-07T02:35:06;40.64;37.52;47.83;;
43787;Laerm;29409;49.306;8.500;2023-08-07T02:36:07;40.36;37.52;42.88;;
43787;Laerm;29409;49.306;8.500;2023-08-07T02:37:07;40.73;36.45;45.17;;
43787;Laerm;29409;49.306;8.500;2023-08-07T02:38:08;40.75;37.12;50.94;;
43787;Laerm;29409;49.306;8.500;2023-08-07T02:39:08;40.11;36.91;43.58;;
43787;Laerm;29409;49.306;8.500;2023-08-07T02:40:09;40.69;37.12;44.62;;
43787;Laerm;29409;49.306;8.500;2023-08-07T02:41:09;40.27;37.32;42.35;;
43787;Laerm;29409;49.306;8.500;2023-08-07T02:42:10;39.84;36.45;42.22;;
43787;Laerm;29409;49.306;8.500;2023-08-07T02:43:10;39.85;35.94;43.29;;
43787;Laerm;29409;49.306;8.500;2023-08-07T02:44:11;40.53;37.52;47.63;;
43787;Laerm;29409;49.306;8.500;2023-08-07T02:45:14;40.46;37.52;43.54;;
43787;Laerm;29409;49.306;8.500;2023-08-07T02:46:14;40.47;36.91;44.19;;
43787;Laerm;29409;49.306;8.500;2023-08-07T02:47:15;40.37;37.12;44.47;;
43787;Laerm;29409;49.306;8.500;2023-08-07T02:48:15;40.95;37.87;43.77;;
43787;Laerm;29409;49.306;8.500;2023-08-07T02:49:17;40.75;38.37;43.29;;
43787;Laerm;29409;49.306;8.500;2023-08-07T02:50:17;40.31;37.12;42.53;;
43787;Laerm;29409;49.306;8.500;2023-08-07T02:51:18;40.86;36.45;46.50;;
43787;Laerm;29409;49.306;8.500;2023-08-07T02:52:18;40.14;37.52;42.35;;
43787;Laerm;29409;49.306;8.500;2023-08-07T02:53:19;40.69;37.88;44.51;;
43787;Laerm;29409;49.306;8.500;2023-08-07T02:54:19;40.22;36.69;47.46;;
43787;Laerm;29409;49.306;8.500;2023-08-07T02:55:20;42.50;37.52;49.84;;
43787;Laerm;29409;49.306;8.500;2023-08-07T02:56:20;41.35;38.05;48.16;;
43787;Laerm;29409;49.306;8.500;2023-08-07T02:57:21;41.57;38.37;46.07;;
43787;Laerm;29409;49.306;8.500;2023-08-07T02:58:25;41.21;37.12;52.70;;
43787;Laerm;29409;49.306;8.500;2023-08-07T02:59:25;41.12;38.05;44.58;;
43787;Laerm;29409;49.306;8.500;2023-08-07T03:00:26;40.67;37.70;43.77;;
43787;Laerm;29409;49.306;8.500;2023-08-07T03:01:27;40.80;37.32;48.88;;
43787;Laerm;29409;49.306;8.500;2023-08-07T03:02:27;40.40;37.12;43.81;;
43787;Laerm;29409;49.306;8.500;2023-08-07T03:03:28;41.57;37.70;49.36;;
43787;Laerm;29409;49.306;8.500;2023-08-07T03:04:29;41.30;37.32;49.62;;
43787;Laerm;29409;49.306;8.500;2023-08-07T03:05:30;40.56;37.52;44.27;;
43787;Laerm;29409;49.306;8.500;2023-08-07T03:06:31;40.74;37.12;43.63;;
43787;Laerm;29409;49.306;8.500;2023-08-07T03:07:31;40.67;36.91;48.51;;
43787;Laerm;29409;49.306;8.500;2023-08-07T03:08:32;40.55;37.12;45.45;;
43787;Laerm;29409;49.306;8.500;2023-08-07T03:09:32;41.14;37.88;44.43;;
43787;Laerm;29409;49.306;8.500;2023-08-07T03:10:33;41.33;35.66;44.54;;
43787;Laerm;29409;49.306;8.500;2023-08-07T03:11:33;42.07;38.52;46.66;;
43787;Laerm;29409;49.306;8.500;2023-08-07T03:12:34;44.08;40.80;55.12;;
43787;Laerm;29409;49.306;8.500;2023-08-07T03:13:34;41.72;38.05;46.05;;
43787;Laerm;29409;49.306;8.500;2023-08-07T03:14:35;41.59;38.37;47.34;;
43787;Laerm;29409;49.306;8.500;2023-08-07T03:15:35;41.67;37.88;46.93;;
43787;Laerm;29409;49.306;8.500;2023-08-07T03:16:36;42.76;39.08;47.67;;
43787;Laerm;29409;49.306;8.500;2023-08-07T03:17:36;41.60;38.37;54.44;;
43787;Laerm;29409;49.306;8.500;2023-08-07T03:18:37;41.21;38.21;46.20;;
43787;Laerm;29409;49.306;8.500;2023-08-07T03:19:39;42.73;38.95;50.92;;
43787;Laerm;29409;49.306;8.500;2023-08-07T03:20:40;42.51;38.81;48.51;;
43787;Laerm;29409;49.306;8.500;2023-08-07T03:21:40;43.38;38.21;54.23;;
43787;Laerm;29409;49.306;8.500;2023-08-07T03:22:41;42.75;39.21;52.09;;
43787;Laerm;29409;49.306;8.500;2023-08-07T03:23:41;41.66;38.21;45.42;;
43787;Laerm;29409;49.306;8.500;2023-08-07T03:24:46;42.55;38.81;50.51;;
43787;Laerm;29409;49.306;8.500;2023-08-07T03:25:49;41.98;38.37;52.67;;
43787;Laerm;29409;49.306;8.500;2023-08-07T03:26:50;41.28;38.37;44.54;;
43787;Laerm;29409;49.306;8.500;2023-08-07T03:27:51;43.03;38.95;51.02;;
43787;Laerm;29409;49.306;8.500;2023-08-07T03:28:52;41.22;38.21;45.36;;
43787;Laerm;29409;49.306;8.500;2023-08-07T03:29:55;40.49;37.70;44.04;;
43787;Laerm;29409;49.306;8.500;2023-08-07T03:30:58;44.26;38.37;51.60;;
43787;Laerm;29409;49.306;8.500;2023-08-07T03:31:58;41.40;37.88;45.04;;
43787;Laerm;29409;49.306;8.500;2023-08-07T03:32:59;41.97;38.05;46.15;;
43787;Laerm;29409;49.306;8.500;2023-08-07T03:33:59;42.66;38.81;47.74;;
43787;Laerm;29409;49.306;8.500;2023-08-07T03:35:00;41.20;38.52;43.04;;
43787;Laerm;29409;49.306;8.500;2023-08-07T03:36:00;41.77;37.88;47.67;;
43787;Laerm;29409;49.306;8.500;2023-08-07T03:37:01;43.61;38.37;52.11;;
43787;Laerm;29409;49.306;8.500;2023-08-07T03:38:02;42.39;37.70;47.00;;
43787;Laerm;29409;49.306;8.500;2023-08-07T03:39:05;41.13;38.67;42.76;;
43787;Laerm;29409;49.306;8.500;2023-08-07T03:40:06;42.21;39.46;45.94;;
43787;Laerm;29409;49.306;8.500;2023-08-07T03:41:07;43.86;39.70;50.10;;
43787;Laerm;29409;49.306;8.500;2023-08-07T03:42:07;42.73;38.95;53.72;;
43787;Laerm;29409;49.306;8.500;2023-08-07T03:43:08;42.09;38.05;47.20;;
43787;Laerm;29409;49.306;8.500;2023-08-07T03:44:08;42.43;38.37;47.90;;
43787;Laerm;29409;49.306;8.500;2023-08-07T03:45:09;42.22;38.81;50.21;;
43787;Laerm;29409;49.306;8.500;2023-08-07T03:46:10;41.08;37.32;49.94;;
43787;Laerm;29409;49.306;8.500;2023-08-07T03:47:10;41.82;37.88;49.06;;
43787;Laerm;29409;49.306;8.500;2023-08-07T03:48:14;41.21;38.52;44.90;;
43787;Laerm;29409;49.306;8.500;2023-08-07T03:49:15;41.54;39.21;44.43;;
43787;Laerm;29409;49.306;8.500;2023-08-07T03:50:15;42.19;39.34;47.86;;
43787;Laerm;29409;49.306;8.500;2023-08-07T03:51:16;42.10;38.67;47.13;;
43787;Laerm;29409;49.306;8.500;2023-08-07T03:52:17;41.74;38.52;44.62;;
43787;Laerm;29409;49.306;8.500;2023-08-07T03:53:18;41.13;38.05;44.27;;
43787;Laerm;29409;49.306;8.500;2023-08-07T03:54:19;41.09;38.52;44.43;;
43787;Laerm;29409;49.306;8.500;2023-08-07T03:55:19;41.07;38.05;44.27;;
43787;Laerm;29409;49.306;8.500;2023-08-07T03:56:20;42.05;37.88;47.96;;
43787;Laerm;29409;49.306;8.500;2023-08-07T03:57:20;41.66;38.52;45.75;;
43787;Laerm;29409;49.306;8.500;2023-08-07T03:58:21;41.29;38.37;43.99;;
43787;Laerm;29409;49.306;8.500;2023-08-07T03:59:22;41.62;38.37;45.93;;
43787;Laerm;29409;49.306;8.500;2023-08-07T04:00:58;41.15;37.87;43.81;;
43787;Laerm;29409;49.306;8.500;2023-08-07T04:02:10;44.64;39.21;54.68;;
43787;Laerm;29409;49.306;8.500;2023-08-07T04:03:31;44.88;40.13;59.49;;
43787;Laerm;29409;49.306;8.500;2023-08-07T04:04:57;46.53;38.99;65.75;;
43787;Laerm;29409;49.306;8.500;2023-08-07T04:06:16;41.46;38.37;46.25;;
43787;Laerm;29409;49.306;8.500;2023-08-07T04:07:46;42.14;38.52;46.38;;
43787;Laerm;29409;49.306;8.500;2023-08-07T04:09:07;42.11;38.05;46.66;;
43787;Laerm;29409;49.306;8.500;2023-08-07T04:10:31;43.33;37.70;57.61;;
43787;Laerm;29409;49.306;8.500;2023-08-07T04:11:52;42.89;39.08;58.34;;
43787;Laerm;29409;49.306;8.500;2023-08-07T04:13:08;43.60;38.95;60.45;;
43787;Laerm;29409;49.306;8.500;2023-08-07T04:14:50;47.61;37.52;66.86;;
43787;Laerm;29409;49.306;8.500;2023-08-07T04:16:08;45.10;38.21;71.43;;
43787;Laerm;29409;49.306;8.500;2023-08-07T04:17:32;42.45;39.08;48.40;;
43787;Laerm;29409;49.306;8.500;2023-08-07T04:18:33;42.52;40.08;48.46;;
43787;Laerm;29409;49.306;8.500;2023-08-07T04:19:36;44.09;40.23;55.34;;
43787;Laerm;29409;49.306;8.500;2023-08-07T04:20:37;43.04;40.03;51.15;;
43787;Laerm;29409;49.306;8.500;2023-08-07T04:21:38;43.80;40.13;64.49;;
43787;Laerm;29409;49.306;8.500;2023-08-07T04:22:38;43.47;39.70;49.21;;
43787;Laerm;29409;49.306;8.500;2023-08-07T04:23:39;41.80;38.95;44.19;;
43787;Laerm;29409;49.306;8.500;2023-08-07T04:24:39;42.93;39.08;50.02;;
43787;Laerm;29409;49.306;8.500;2023-08-07T04:25:40;42.51;39.21;48.07;;
43787;Laerm;29409;49.306;8.500;2023-08-07T04:26:40;42.65;39.81;51.37;;
43787;Laerm;29409;49.306;8.500;2023-08-07T04:27:41;43.91;40.62;52.53;;
43787;Laerm;29409;49.306;8.500;2023-08-07T04:28:42;43.30;40.71;47.93;;
43787;Laerm;29409;49.306;8.500;2023-08-07T04:29:43;45.27;39.46;53.88;;
43787;Laerm;29409;49.306;8.500;2023-08-07T04:30:48;43.18;40.23;48.77;;
43787;Laerm;29409;49.306;8.500;2023-08-07T04:31:49;42.46;39.46;48.21;;
43787;Laerm;29409;49.306;8.500;2023-08-07T04:32:49;44.03;40.45;50.98;;
43787;Laerm;29409;49.306;8.500;2023-08-07T04:33:50;44.62;40.80;52.39;;
43787;Laerm;29409;49.306;8.500;2023-08-07T04:34:50;44.18;40.89;50.41;;
43787;Laerm;29409;49.306;8.500;2023-08-07T04:35:51;42.78;40.13;50.21;;
43787;Laerm;29409;49.306;8.500;2023-08-07T04:36:53;43.30;40.23;49.66;;
43787;Laerm;29409;49.306;8.500;2023-08-07T04:37:56;47.09;41.68;56.94;;
43787;Laerm;29409;49.306;8.500;2023-08-07T04:38:57;44.28;40.89;58.36;;
43787;Laerm;29409;49.306;8.500;2023-08-07T04:39:57;44.39;41.22;49.93;;
43787;Laerm;29409;49.306;8.500;2023-08-07T04:40:58;43.16;40.43;48.32;;
43787;Laerm;29409;49.306;8.500;2023-08-07T04:42:01;43.49;40.62;49.36;;
43787;Laerm;29409;49.306;8.500;2023-08-07T04:43:02;43.46;40.33;49.72;;
43787;Laerm;29409;49.306;8.500;2023-08-07T04:44:02;42.68;40.43;46.64;;
43787;Laerm;29409;49.306;8.500;2023-08-07T04:45:03;43.67;40.54;51.04;;
43787;Laerm;29409;49.306;8.500;2023-08-07T04:46:04;47.45;39.81;62.83;;
43787;Laerm;29409;49.306;8.500;2023-08-07T04:47:05;42.51;39.46;48.61;;
43787;Laerm;29409;49.306;8.500;2023-08-07T04:48:08;46.57;40.03;66.37;;
43787;Laerm;29409;49.306;8.500;2023-08-07T04:49:09;42.09;39.21;47.55;;
43787;Laerm;29409;49.306;8.500;2023-08-07T04:50:09;41.78;38.81;46.20;;
43787;Laerm;29409;49.306;8.500;2023-08-07T04:51:10;42.34;39.34;45.86;;
43787;Laerm;29409;49.306;8.500;2023-08-07T04:52:11;45.88;40.98;61.08;;
43787;Laerm;29409;49.306;8.500;2023-08-07T04:53:11;42.47;39.21;48.32;;
43787;Laerm;29409;49.306;8.500;2023-08-07T04:54:12;43.02;39.11;47.36;;
43787;Laerm;29409;49.306;8.500;2023-08-07T04:55:12;42.98;39.34;47.74;;
43787;Laerm;29409;49.306;8.500;2023-08-07T04:56:13;45.33;39.70;55.45;;
43787;Laerm;29409;49.306;8.500;2023-08-07T04:57:13;43.67;40.53;51.38;;
43787;Laerm;29409;49.306;8.500;2023-08-07T04:58:14;42.87;39.58;49.00;;
43787;Laerm;29409;49.306;8.500;2023-08-07T04:59:15;41.38;38.05;46.82;;
43787;Laerm;29409;49.306;8.500;2023-08-07T05:00:16;41.88;38.21;48.13;;
43787;Laerm;29409;49.306;8.500;2023-08-07T05:01:16;41.74;38.95;45.94;;
43787;Laerm;29409;49.306;8.500;2023-08-07T05:02:17;43.47;39.58;48.85;;
43787;Laerm;29409;49.306;8.500;2023-08-07T05:03:18;44.83;39.70;53.12;;
43787;Laerm;29409;49.306;8.500;2023-08-07T05:04:18;44.91;39.58;56.99;;
43787;Laerm;29409;49.306;8.500;2023-08-07T05:05:19;42.97;39.81;48.92;;
43787;Laerm;29409;49.306;8.500;2023-08-07T05:06:21;42.09;39.34;46.50;;
43787;Laerm;29409;49.306;8.500;2023-08-07T05:07:22;43.24;38.67;53.61;;
43787;Laerm;29409;49.306;8.500;2023-08-07T05:08:22;44.78;40.80;54.37;;
43787;Laerm;29409;49.306;8.500;2023-08-07T05:09:23;44.37;40.03;56.40;;
43787;Laerm;29409;49.306;8.500;2023-08-07T05:10:23;42.89;39.89;50.77;;
43787;Laerm;29409;49.306;8.500;2023-08-07T05:11:24;43.55;41.38;50.20;;
43787;Laerm;29409;49.306;8.500;2023-08-07T05:12:26;42.97;40.13;48.98;;
43787;Laerm;29409;49.306;8.500;2023-08-07T05:13:30;42.95;39.78;49.71;;
43787;Laerm;29409;49.306;8.500;2023-08-07T05:14:33;41.93;39.08;48.41;;
43787;Laerm;29409;49.306;8.500;2023-08-07T05:15:34;42.34;39.21;47.50;;
43787;Laerm;29409;49.306;8.500;2023-08-07T05:16:34;42.68;39.34;51.64;;
43787;Laerm;29409;49.306;8.500;2023-08-07T05:17:35;41.24;38.37;44.51;;
43787;Laerm;29409;49.306;8.500;2023-08-07T05:18:35;41.63;39.34;54.77;;
43787;Laerm;29409;49.306;8.500;2023-08-07T05:19:39;42.71;39.58;46.57;;
43787;Laerm;29409;49.306;8.500;2023-08-07T05:20:39;42.47;39.81;57.06;;
43787;Laerm;29409;49.306;8.500;2023-08-07T05:21:40;42.56;39.08;49.21;;
43787;Laerm;29409;49.306;8.500;2023-08-07T05:22:41;41.79;39.46;44.27;;
43787;Laerm;29409;49.306;8.500;2023-08-07T05:23:42;45.20;39.92;55.36;;
43787;Laerm;29409;49.306;8.500;2023-08-07T05:24:42;44.60;40.23;53.06;;
43787;Laerm;29409;49.306;8.500;2023-08-07T05:25:45;41.84;39.21;47.68;;
43787;Laerm;29409;49.306;8.500;2023-08-07T05:26:49;45.05;39.21;57.35;;
43787;Laerm;29409;49.306;8.500;2023-08-07T05:27:49;42.73;39.21;50.34;;
43787;Laerm;29409;49.306;8.500;2023-08-07T05:28:50;44.44;40.43;51.19;;
43787;Laerm;29409;49.306;8.500;2023-08-07T05:29:51;43.21;40.33;47.08;;
43787;Laerm;29409;49.306;8.500;2023-08-07T05:30:51;45.62;40.23;58.38;;
43787;Laerm;29409;49.306;8.500;2023-08-07T05:31:52;43.27;40.43;53.57;;
43787;Laerm;29409;49.306;8.500;2023-08-07T05:32:53;43.19;40.03;47.16;;
43787;Laerm;29409;49.306;8.500;2023-08-07T05:33:53;42.56;39.70;46.45;;
43787;Laerm;29409;49.306;8.500;2023-08-07T05:34:54;43.12;40.18;49.83;;
43787;Laerm;29409;49.306;8.500;2023-08-07T05:35:55;42.93;40.03;53.06;;
43787;Laerm;29409;49.306;8.500;2023-08-07T05:36:55;43.88;39.70;52.58;;
43787;Laerm;29409;49.306;8.500;2023-08-07T05:37:56;45.35;40.71;51.02;;
43787;Laerm;29409;49.306;8.500;2023-08-07T05:39:02;43.96;40.23;62.50;;
43787;Laerm;29409;49.306;8.500;2023-08-07T05:40:04;42.82;38.81;46.73;;
43787;Laerm;29409;49.306;8.500;2023-08-07T05:41:05;47.65;40.36;62.05;;
43787;Laerm;29409;49.306;8.500;2023-08-07T05:42:08;44.70;39.70;63.70;;
43787;Laerm;29409;49.306;8.500;2023-08-07T05:43:10;49.92;40.98;68.85;;
43787;Laerm;29409;49.306;8.500;2023-08-07T05:44:12;42.93;39.68;47.59;;
43787;Laerm;29409;49.306;8.500;2023-08-07T05:45:13;42.01;39.21;51.39;;
43787;Laerm;29409;49.306;8.500;2023-08-07T05:46:13;43.71;39.81;65.47;;
43787;Laerm;29409;49.306;8.500;2023-08-07T05:47:14;42.40;38.37;47.81;;
43787;Laerm;29409;49.306;8.500;2023-08-07T05:48:17;42.80;38.95;49.30;;
43787;Laerm;29409;49.306;8.500;2023-08-07T05:49:19;44.23;40.33;64.41;;
43787;Laerm;29409;49.306;8.500;2023-08-07T05:50:19;43.15;40.33;47.93;;